createdAt,value
2023-02-08T00:01:06.123Z,17.83
2023-02-08T00:03:32.987Z,16.50
2023-02-08T00:05:59.864Z,16.67
2023-02-08T00:08:26.746Z,16.27
2023-02-08T00:10:53.545Z,17.05
2023-02-08T00:13:21.327Z,16.15
2023-02-08T00:15:48.399Z,14.93
2023-02-08T00:18:15.257Z,15.25
2023-02-08T00:20:44.266Z,16.45
2023-02-08T00:23:13.213Z,17.75
2023-02-08T00:25:41.651Z,17.13
2023-02-08T00:28:15.296Z,16.38
2023-02-08T00:30:43.681Z,18.65
2023-02-08T00:33:11.712Z,18.30
2023-02-08T00:35:38.799Z,18.42
2023-02-08T00:38:05.610Z,16.88
2023-02-08T00:40:32.518Z,16.63
2023-02-08T00:42:59.352Z,16.35
2023-02-08T00:45:26.151Z,15.73
2023-02-08T00:47:53.034Z,15.77
2023-02-08T00:50:21.241Z,15.20
2023-02-08T00:52:48.093Z,15.90
2023-02-08T00:55:14.826Z,16.35
2023-02-08T00:57:41.675Z,15.27
2023-02-08T01:00:11.546Z,16.48
2023-02-08T01:02:39.401Z,16.25
2023-02-08T01:05:07.249Z,15.30
2023-02-08T01:07:37.784Z,15.40
2023-02-08T01:10:06.439Z,14.98
2023-02-08T01:12:33.465Z,14.88
2023-02-08T01:15:00.316Z,15.23
2023-02-08T01:17:27.227Z,15.13
2023-02-08T01:19:54.063Z,15.32
2023-02-08T01:22:20.978Z,16.40
2023-02-08T01:24:47.918Z,15.80
2023-02-08T01:27:14.672Z,15.68
2023-02-08T01:29:41.421Z,15.23
2023-02-08T01:32:08.294Z,15.55
2023-02-08T01:34:35.170Z,15.20
2023-02-08T01:37:01.962Z,15.50
2023-02-08T01:39:28.730Z,14.82
2023-02-08T01:41:55.489Z,14.38
2023-02-08T01:45:15.537Z,15.65
2023-02-08T01:47:47.051Z,15.15
2023-02-08T01:50:17.600Z,15.45
2023-02-08T01:52:45.745Z,15.10
2023-02-08T01:55:24.156Z,15.38
2023-02-08T01:57:56.629Z,14.88
2023-02-08T02:00:24.447Z,14.63
2023-02-08T02:02:55.264Z,15.13
2023-02-08T02:05:43.013Z,14.32
2023-02-08T02:08:12.075Z,15.57
2023-02-08T02:10:41.650Z,15.60
2023-02-08T02:13:18.483Z,14.10
2023-02-08T02:15:46.188Z,14.70
2023-02-08T02:18:23.589Z,15.40
2023-02-08T02:21:21.719Z,15.00
2023-02-08T02:24:22.404Z,14.70
2023-02-08T02:27:37.482Z,15.27
2023-02-08T02:30:25.365Z,14.00
2023-02-08T02:33:34.098Z,14.50
2023-02-08T02:36:08.069Z,14.38
2023-02-08T02:38:41.410Z,14.30
2023-02-08T02:41:56.421Z,15.27
2023-02-08T02:44:46.094Z,14.93
2023-02-08T02:47:23.013Z,13.70
2023-02-08T02:50:01.379Z,14.05
2023-02-08T02:52:51.457Z,13.43
2023-02-08T02:55:23.700Z,14.23
2023-02-08T02:57:54.224Z,14.27
2023-02-08T03:00:28.979Z,14.88
2023-02-08T03:02:56.072Z,14.50
2023-02-08T03:05:23.243Z,14.20
2023-02-08T03:08:41.060Z,14.35
2023-02-08T03:11:26.668Z,13.15
2023-02-08T03:14:34.753Z,14.68
2023-02-08T03:17:32.640Z,13.20
2023-02-08T03:20:08.522Z,13.63
2023-02-08T03:22:59.858Z,13.63
2023-02-08T03:25:54.162Z,14.32
2023-02-08T03:28:44.039Z,12.98
2023-02-08T03:31:30.281Z,13.48
2023-02-08T03:34:14.097Z,14.20
2023-02-08T03:36:53.479Z,13.95
2023-02-08T03:39:27.357Z,13.25
2023-02-08T03:42:01.542Z,13.55
2023-02-08T03:44:45.708Z,13.07
2023-02-08T03:47:32.619Z,13.88
2023-02-08T03:50:06.434Z,12.43
2023-02-08T03:52:35.690Z,13.90
2023-02-08T03:55:12.052Z,13.57
2023-02-08T03:57:52.946Z,14.50
2023-02-08T04:00:21.808Z,14.50
2023-02-08T04:03:10.769Z,13.73
2023-02-08T04:05:37.792Z,13.60
2023-02-08T04:08:04.835Z,13.40
2023-02-08T04:10:31.800Z,13.40
2023-02-08T04:12:58.829Z,12.77
2023-02-08T04:15:27.320Z,13.00
2023-02-08T04:17:54.760Z,12.55
2023-02-08T04:20:21.724Z,13.63
2023-02-08T04:22:49.278Z,13.45
2023-02-08T04:25:16.193Z,13.50
2023-02-08T04:27:43.176Z,13.88
2023-02-08T04:30:10.930Z,12.57
2023-02-08T04:32:37.731Z,13.07
2023-02-08T04:35:05.368Z,13.10
2023-02-08T04:37:32.527Z,13.52
2023-02-08T04:39:59.331Z,13.38
2023-02-08T04:42:26.380Z,13.63
2023-02-08T04:44:53.218Z,12.40
2023-02-08T04:47:20.004Z,12.93
2023-02-08T04:49:46.785Z,13.43
2023-02-08T04:52:13.621Z,13.35
2023-02-08T04:54:40.985Z,12.52
2023-02-08T04:57:12.224Z,12.88
2023-02-08T04:59:39.044Z,13.25
2023-02-08T05:02:05.932Z,12.30
2023-02-08T05:04:32.991Z,13.18
2023-02-08T05:06:59.863Z,12.77
2023-02-08T05:09:26.686Z,12.23
2023-02-08T05:11:53.503Z,12.73
2023-02-08T05:14:20.327Z,11.95
2023-02-08T05:16:47.244Z,12.75
2023-02-08T05:19:14.234Z,12.82
2023-02-08T05:21:41.024Z,12.27
2023-02-08T05:24:08.921Z,12.50
2023-02-08T05:26:35.752Z,13.32
2023-02-08T05:29:02.665Z,13.35
2023-02-08T05:31:29.496Z,13.15
2023-02-08T05:33:56.472Z,12.45
2023-02-08T05:36:24.478Z,12.93
2023-02-08T05:38:51.289Z,12.98
2023-02-08T05:41:18.096Z,13.38
2023-02-08T05:43:45.888Z,13.27
2023-02-08T05:46:13.182Z,13.63
2023-02-08T05:48:40.388Z,13.57
2023-02-08T05:51:07.597Z,12.38
2023-02-08T05:53:34.693Z,12.90
2023-02-08T05:56:01.450Z,11.77
2023-02-08T05:58:28.383Z,13.30
2023-02-08T06:00:55.248Z,12.90
2023-02-08T06:03:22.559Z,12.80
2023-02-08T06:05:49.550Z,13.60
2023-02-08T06:08:16.360Z,13.35
2023-02-08T06:10:43.268Z,13.07
2023-02-08T06:13:10.229Z,13.18
2023-02-08T06:15:37.116Z,12.80
2023-02-08T06:18:03.991Z,13.18
2023-02-08T06:20:30.771Z,13.60
2023-02-08T06:22:57.641Z,13.65
2023-02-08T06:25:24.682Z,12.95
2023-02-08T06:27:51.478Z,13.35
2023-02-08T06:30:18.668Z,13.48
2023-02-08T06:32:45.649Z,13.20
2023-02-08T06:35:13.118Z,13.23
2023-02-08T06:37:40.130Z,13.77
2023-02-08T06:40:08.138Z,13.63
2023-02-08T06:42:35.017Z,12.90
2023-02-08T06:45:01.905Z,13.52
2023-02-08T06:47:29.035Z,12.30
2023-02-08T06:49:56.181Z,14.07
2023-02-08T06:52:23.231Z,13.70
2023-02-08T06:54:49.998Z,13.55
2023-02-08T06:57:17.075Z,11.93
2023-02-08T06:59:43.954Z,13.45
2023-02-08T07:02:15.609Z,13.27
2023-02-08T07:04:43.898Z,12.20
2023-02-08T07:07:12.757Z,13.10
2023-02-08T07:09:39.997Z,13.13
2023-02-08T07:12:08.873Z,13.88
2023-02-08T07:14:40.018Z,13.32
2023-02-08T07:17:07.298Z,12.65
2023-02-08T07:19:34.421Z,12.35
2023-02-08T07:22:07.860Z,13.63
2023-02-08T07:24:37.652Z,13.23
2023-02-08T07:27:06.517Z,13.50
2023-02-08T07:29:34.629Z,13.02
2023-02-08T07:32:03.718Z,13.48
2023-02-08T07:34:36.131Z,13.07
2023-02-08T07:37:03.632Z,13.27
2023-02-08T07:39:31.281Z,12.90
2023-02-08T07:41:59.308Z,12.93
2023-02-08T07:44:30.186Z,13.63
2023-02-08T07:46:56.980Z,12.85
2023-02-08T07:49:24.258Z,13.73
2023-02-08T07:51:51.271Z,13.45
2023-02-08T07:54:18.132Z,13.23
2023-02-08T07:56:45.117Z,13.20
2023-02-08T07:59:12.073Z,13.63
2023-02-08T08:01:38.975Z,13.32
2023-02-08T08:04:05.891Z,12.63
2023-02-08T08:06:32.842Z,14.15
2023-02-08T08:08:59.718Z,13.38
2023-02-08T08:11:26.588Z,13.43
2023-02-08T08:13:53.492Z,13.40
2023-02-08T08:16:20.901Z,12.75
2023-02-08T08:18:48.260Z,14.25
2023-02-08T08:21:16.547Z,13.38
2023-02-08T08:23:44.000Z,14.13
2023-02-08T08:26:18.497Z,13.70
2023-02-08T08:28:46.780Z,13.13
2023-02-08T08:31:18.518Z,14.13
2023-02-08T08:33:46.133Z,14.00
2023-02-08T08:36:12.977Z,13.25
2023-02-08T08:38:40.977Z,14.15
2023-02-08T08:41:14.785Z,13.57
2023-02-08T08:43:41.973Z,13.70
2023-02-08T08:46:09.764Z,12.95
2023-02-08T08:48:38.674Z,13.93
2023-02-08T08:51:06.806Z,13.77
2023-02-08T08:53:34.500Z,14.25
2023-02-08T08:56:01.511Z,13.50
2023-02-08T08:58:28.631Z,13.25
2023-02-08T09:01:00.059Z,12.93
2023-02-08T09:03:28.379Z,13.48
2023-02-08T09:05:55.625Z,12.80
2023-02-08T09:08:22.754Z,12.63
2023-02-08T09:10:49.601Z,13.23
2023-02-08T09:13:19.572Z,13.77
2023-02-08T09:15:48.240Z,13.02
2023-02-08T09:18:15.475Z,11.68
2023-02-08T09:20:42.766Z,12.35
2023-02-08T09:23:09.746Z,12.85
2023-02-08T09:25:37.710Z,12.52
2023-02-08T09:28:05.026Z,12.10
2023-02-08T09:30:32.884Z,12.00
2023-02-08T09:32:59.928Z,12.02
2023-02-08T09:35:26.862Z,12.30
2023-02-08T09:37:57.713Z,12.43
2023-02-08T09:40:30.297Z,12.48
2023-02-08T09:43:31.534Z,11.55
2023-02-08T09:46:11.567Z,12.55
2023-02-08T09:48:41.024Z,11.98
2023-02-08T09:51:35.580Z,11.57
2023-02-08T09:54:22.755Z,12.13
2023-02-08T09:56:50.544Z,11.57
2023-02-08T09:59:27.457Z,11.05
2023-02-08T10:02:04.536Z,10.82
2023-02-08T10:04:59.360Z,11.38
2023-02-08T10:07:28.851Z,11.02
2023-02-08T10:10:01.172Z,11.88
2023-02-08T10:13:01.684Z,11.30
2023-02-08T10:15:34.613Z,11.25
2023-02-08T10:18:37.055Z,10.63
2023-02-08T10:21:34.025Z,11.68
2023-02-08T10:24:20.663Z,10.82
2023-02-08T10:27:28.724Z,10.25
2023-02-08T10:30:21.384Z,10.50
2023-02-08T10:33:10.062Z,10.85
2023-02-08T10:35:45.097Z,10.55
2023-02-08T10:38:37.144Z,11.20
2023-02-08T10:41:20.181Z,11.00
2023-02-08T10:44:19.457Z,10.50
2023-02-08T10:47:27.145Z,9.23
2023-02-08T10:50:07.714Z,11.65
2023-02-08T10:52:34.798Z,9.40
2023-02-08T10:55:02.230Z,9.23
2023-02-08T10:57:35.529Z,9.98
2023-02-08T11:00:07.793Z,9.27
2023-02-08T11:02:41.852Z,9.50
2023-02-08T11:05:31.466Z,8.32
2023-02-08T11:08:16.026Z,9.32
2023-02-08T11:10:56.621Z,8.07
2023-02-08T11:13:31.428Z,8.93
2023-02-08T11:16:01.790Z,8.25
2023-02-08T11:18:40.911Z,7.93
2023-02-08T11:21:24.838Z,9.05
2023-02-08T11:23:55.413Z,8.70
2023-02-08T11:26:27.119Z,8.15
2023-02-08T11:29:21.271Z,8.95
2023-02-08T11:32:16.998Z,8.18
2023-02-08T11:34:44.116Z,8.15
2023-02-08T11:37:17.617Z,9.05
2023-02-08T11:39:55.196Z,9.32
2023-02-08T11:42:41.807Z,8.75
2023-02-08T11:45:20.800Z,9.10
2023-02-08T11:47:49.521Z,7.93
2023-02-08T11:50:35.091Z,8.30
2023-02-08T11:53:39.677Z,7.65
2023-02-08T11:56:21.117Z,8.30
2023-02-08T11:59:14.917Z,7.93
2023-02-08T12:01:42.546Z,7.47
2023-02-08T12:04:16.753Z,8.07
2023-02-08T12:07:31.683Z,7.80
2023-02-08T12:10:24.278Z,8.00
2023-02-08T12:13:37.350Z,8.75
2023-02-08T12:16:42.752Z,8.25
2023-02-08T12:19:27.411Z,8.93
2023-02-08T12:22:10.749Z,8.88
2023-02-08T12:25:06.938Z,8.88
2023-02-08T12:27:57.657Z,8.75
2023-02-08T12:30:35.378Z,8.00
2023-02-08T12:33:46.987Z,9.00
2023-02-08T12:36:39.604Z,8.65
2023-02-08T12:39:57.863Z,8.38
2023-02-08T12:42:53.797Z,9.27
2023-02-08T12:45:47.886Z,8.80
2023-02-08T12:48:47.574Z,8.88
2023-02-08T12:51:56.026Z,8.23
2023-02-08T12:54:38.167Z,8.27
2023-02-08T12:57:06.580Z,8.02
2023-02-08T12:59:49.670Z,8.18
2023-02-08T13:02:44.139Z,8.20
2023-02-08T13:05:21.859Z,7.82
2023-02-08T13:08:22.373Z,7.78
2023-02-08T13:11:03.497Z,8.10
2023-02-08T13:13:44.284Z,8.20
2023-02-08T13:16:21.892Z,7.30
2023-02-08T13:19:24.667Z,7.82
2023-02-08T13:21:54.613Z,6.80
2023-02-08T13:24:43.666Z,7.10
2023-02-08T13:27:22.466Z,6.82
2023-02-08T13:29:52.531Z,6.45
2023-02-08T13:32:30.074Z,6.90
2023-02-08T13:35:05.597Z,6.53
2023-02-08T13:37:35.578Z,6.68
2023-02-08T13:40:28.340Z,6.93
2023-02-08T13:43:35.718Z,6.50
2023-02-08T13:46:04.555Z,7.15
2023-02-08T13:49:04.067Z,7.10
2023-02-08T13:51:33.591Z,7.13
2023-02-08T13:54:00.721Z,6.43
2023-02-08T13:56:50.557Z,7.00
2023-02-08T13:59:35.941Z,6.78
2023-02-08T14:02:20.176Z,7.28
2023-02-08T14:04:54.348Z,7.35
2023-02-08T14:07:46.363Z,7.45
2023-02-08T14:10:37.327Z,7.65
2023-02-08T14:13:28.489Z,7.25
2023-02-08T14:16:33.688Z,6.85
2023-02-08T14:19:21.485Z,7.50
2023-02-08T14:22:11.378Z,7.38
2023-02-08T14:25:00.986Z,7.05
2023-02-08T14:27:42.315Z,6.88
2023-02-08T14:30:26.670Z,7.15
2023-02-08T14:33:08.360Z,7.50
2023-02-08T14:35:42.306Z,7.57
2023-02-08T14:38:47.554Z,7.15
2023-02-08T14:41:43.598Z,7.07
2023-02-08T14:44:38.665Z,7.10
2023-02-08T14:47:26.960Z,7.18
2023-02-08T14:50:21.828Z,7.45
2023-02-08T14:53:07.696Z,7.38
2023-02-08T14:55:52.296Z,7.35
2023-02-08T14:58:36.018Z,7.75
2023-02-08T15:01:13.639Z,7.40
2023-02-08T15:03:42.740Z,7.30
2023-02-08T15:06:37.412Z,7.25
2023-02-08T15:09:12.825Z,7.28
2023-02-08T15:11:40.672Z,7.68
2023-02-08T15:14:16.647Z,8.00
2023-02-08T15:16:45.226Z,8.18
2023-02-08T15:19:43.060Z,7.18
2023-02-08T15:22:25.691Z,7.60
2023-02-08T15:25:01.759Z,7.13
2023-02-08T15:27:34.163Z,7.28
2023-02-08T15:30:01.894Z,7.05
2023-02-08T15:32:30.438Z,7.80
2023-02-08T15:35:04.091Z,6.93
2023-02-08T15:37:35.008Z,7.50
2023-02-08T15:40:03.185Z,7.55
2023-02-08T15:42:34.018Z,7.57
2023-02-08T15:45:02.646Z,7.57
2023-02-08T15:47:37.802Z,6.97
2023-02-08T15:50:16.346Z,6.55
2023-02-08T15:52:44.134Z,6.50
2023-02-08T15:55:18.261Z,6.65
2023-02-08T15:57:54.331Z,6.60
2023-02-08T16:00:35.692Z,7.25
2023-02-08T16:03:19.721Z,5.82
2023-02-08T16:05:54.001Z,5.45
2023-02-08T16:08:43.730Z,5.13
2023-02-08T16:11:23.205Z,4.93
2023-02-08T16:13:54.547Z,4.70
2023-02-08T16:16:48.040Z,10.00
2023-02-08T16:19:22.254Z,7.35
2023-02-08T16:21:49.938Z,6.00
2023-02-08T16:24:16.678Z,5.15
2023-02-08T16:27:07.517Z,5.32
2023-02-08T16:29:40.047Z,4.90
2023-02-08T16:32:13.258Z,5.35
2023-02-08T16:34:40.954Z,4.65
2023-02-08T16:37:24.256Z,4.45
2023-02-08T16:39:51.118Z,4.20
2023-02-08T16:42:26.111Z,4.75
2023-02-08T16:45:09.130Z,4.40
2023-02-08T16:47:45.071Z,4.43
2023-02-08T16:50:25.771Z,5.15
2023-02-08T16:53:02.164Z,4.47
2023-02-08T16:55:33.255Z,4.88
2023-02-08T16:58:00.422Z,4.85
2023-02-08T17:00:34.838Z,5.78
2023-02-08T17:03:02.113Z,5.50
2023-02-08T17:05:35.329Z,5.63
2023-02-08T17:08:07.886Z,5.45
2023-02-08T17:10:36.805Z,5.80
2023-02-08T17:13:19.083Z,5.60
2023-02-08T17:15:51.051Z,5.30
2023-02-08T17:18:18.067Z,5.60
2023-02-08T17:20:45.562Z,6.45
2023-02-08T17:23:15.657Z,6.07
2023-02-08T17:25:43.594Z,7.07
2023-02-08T17:28:21.098Z,7.55
2023-02-08T17:30:49.631Z,7.90
2023-02-08T17:33:19.710Z,9.15
2023-02-08T17:35:50.647Z,9.20
2023-02-08T17:38:19.853Z,9.60
2023-02-08T17:40:47.276Z,7.40
2023-02-08T17:43:14.477Z,7.65
2023-02-08T17:45:44.584Z,7.47
2023-02-08T17:48:15.390Z,7.40
2023-02-08T17:50:47.704Z,7.03
2023-02-08T17:53:15.429Z,6.82
2023-02-08T17:55:44.160Z,6.80
2023-02-08T17:58:12.753Z,6.43
2023-02-08T18:00:40.241Z,7.22
2023-02-08T18:03:07.229Z,7.07
2023-02-08T18:05:34.144Z,7.18
2023-02-08T18:08:00.993Z,6.90
2023-02-08T18:10:28.347Z,6.93
2023-02-08T18:12:55.540Z,6.47
2023-02-08T18:15:23.966Z,6.28
2023-02-08T18:17:50.856Z,6.20
2023-02-08T18:20:18.821Z,7.13
2023-02-08T18:22:46.116Z,6.72
2023-02-08T18:25:16.007Z,6.93
2023-02-08T18:27:43.101Z,6.90
2023-02-08T18:30:12.333Z,6.68
2023-02-08T18:32:39.793Z,7.07
2023-02-08T18:35:08.661Z,6.82
2023-02-08T18:37:37.495Z,6.75
2023-02-08T18:40:06.922Z,7.13
2023-02-08T18:42:35.938Z,6.10
2023-02-08T18:45:05.098Z,6.78
2023-02-08T18:47:31.939Z,6.78
2023-02-08T18:49:58.744Z,6.60
2023-02-08T18:52:25.935Z,5.97
2023-02-08T18:54:52.854Z,7.10
2023-02-08T18:57:20.050Z,6.20
2023-02-08T18:59:46.996Z,6.80
2023-02-08T19:02:21.237Z,5.97
2023-02-08T19:04:49.238Z,6.53
2023-02-08T19:07:16.218Z,6.38
2023-02-08T19:09:43.977Z,6.35
2023-02-08T19:12:15.187Z,6.88
2023-02-08T19:14:43.599Z,5.93
2023-02-08T19:17:12.308Z,7.18
2023-02-08T19:19:40.410Z,7.40
2023-02-08T19:22:07.450Z,7.38
2023-02-08T19:24:34.325Z,6.68
2023-02-08T19:27:01.512Z,7.40
2023-02-08T19:29:30.458Z,6.45
2023-02-08T19:31:58.423Z,6.97
2023-02-08T19:34:25.846Z,7.00
2023-02-08T19:36:54.567Z,7.85
2023-02-08T19:39:26.683Z,6.93
2023-02-08T19:41:54.563Z,7.85
2023-02-08T19:44:22.574Z,7.10
2023-02-08T19:46:54.823Z,7.53
2023-02-08T19:49:25.582Z,7.10
2023-02-08T19:51:52.842Z,7.10
2023-02-08T19:54:20.218Z,6.88
2023-02-08T19:56:50.225Z,7.88
2023-02-08T19:59:27.312Z,6.65
2023-02-08T20:01:55.160Z,6.43
2023-02-08T20:04:23.356Z,7.30
2023-02-08T20:06:53.079Z,7.70
2023-02-08T20:09:20.344Z,8.50
2023-02-08T20:11:57.971Z,8.65
2023-02-08T20:14:32.757Z,7.72
2023-02-08T20:17:01.602Z,7.40
2023-02-08T20:19:29.175Z,7.25
2023-02-08T20:21:56.055Z,7.70
2023-02-08T20:24:22.894Z,6.70
2023-02-08T20:26:49.966Z,7.70
2023-02-08T20:29:17.769Z,7.75
2023-02-08T20:31:47.920Z,8.88
2023-02-08T20:34:16.983Z,8.73
2023-02-08T20:36:49.705Z,8.45
2023-02-08T20:39:21.628Z,7.97
2023-02-08T20:41:48.602Z,8.13
2023-02-08T20:44:18.602Z,8.50
2023-02-08T20:46:46.596Z,8.02
2023-02-08T20:49:15.215Z,8.57
2023-02-08T20:51:43.192Z,8.32
2023-02-08T20:54:11.010Z,7.97
2023-02-08T20:56:38.822Z,8.35
2023-02-08T20:59:10.125Z,7.57
2023-02-08T21:01:37.345Z,9.63
2023-02-08T21:04:05.438Z,9.48
2023-02-08T21:06:36.101Z,12.15
2023-02-08T21:09:15.917Z,13.40
2023-02-08T21:11:44.869Z,10.82
2023-02-08T21:14:18.377Z,9.38
2023-02-08T21:16:48.253Z,9.90
2023-02-08T21:19:15.893Z,10.15
2023-02-08T21:21:43.464Z,9.38
2023-02-08T21:24:11.209Z,10.20
2023-02-08T21:26:38.520Z,9.82
2023-02-08T21:29:06.307Z,9.20
2023-02-08T21:31:36.462Z,8.90
2023-02-08T21:34:04.621Z,9.20
2023-02-08T21:36:32.146Z,7.78
2023-02-08T21:38:59.266Z,8.45
2023-02-08T21:41:30.436Z,7.53
2023-02-08T21:44:00.676Z,8.35
2023-02-08T21:46:28.442Z,8.05
2023-02-08T21:49:16.360Z,8.25
2023-02-08T21:52:04.525Z,8.20
2023-02-08T21:54:52.135Z,8.35
2023-02-08T21:57:28.616Z,9.07
2023-02-08T22:00:01.367Z,9.40
2023-02-08T22:02:30.127Z,7.53
2023-02-08T22:05:00.242Z,7.53
2023-02-08T22:07:29.014Z,7.20
2023-02-08T22:09:56.592Z,6.93
2023-02-08T22:12:23.703Z,6.72
2023-02-08T22:14:51.148Z,6.90
2023-02-08T22:17:18.599Z,7.03
2023-02-08T22:19:45.760Z,6.30
2023-02-08T22:22:12.681Z,7.80
2023-02-08T22:24:39.593Z,7.82
2023-02-08T22:27:06.492Z,8.02
2023-02-08T22:29:33.354Z,8.85
2023-02-08T22:32:01.190Z,8.68
2023-02-08T22:34:28.392Z,8.20
2023-02-08T22:36:55.222Z,7.63
2023-02-08T22:39:22.260Z,7.65
2023-02-08T22:41:49.213Z,7.70
2023-02-08T22:44:16.151Z,7.80
2023-02-08T22:46:43.084Z,8.30
2023-02-08T22:49:09.904Z,7.53
2023-02-08T22:51:37.807Z,7.30
2023-02-08T22:54:04.824Z,8.07
2023-02-08T22:56:31.717Z,8.23
2023-02-08T22:59:00.270Z,7.50
2023-02-08T23:01:28.640Z,8.15
2023-02-08T23:03:55.551Z,7.55
2023-02-08T23:06:22.319Z,8.02
2023-02-08T23:08:49.215Z,7.97
2023-02-08T23:11:16.642Z,8.10
2023-02-08T23:13:43.489Z,7.85
2023-02-08T23:16:16.586Z,8.38
2023-02-08T23:18:44.095Z,7.63
2023-02-08T23:21:16.534Z,7.75
2023-02-08T23:23:45.691Z,8.43
2023-02-08T23:26:17.871Z,8.32
2023-02-08T23:28:45.393Z,7.95
2023-02-08T23:31:14.499Z,7.68
2023-02-08T23:33:41.721Z,8.98
2023-02-08T23:36:13.028Z,8.05
2023-02-08T23:38:40.709Z,8.63
2023-02-08T23:41:17.940Z,8.85
2023-02-08T23:43:45.098Z,8.85
2023-02-08T23:46:18.832Z,8.50
2023-02-08T23:48:47.663Z,8.65
2023-02-08T23:51:18.281Z,8.82
2023-02-08T23:53:45.934Z,8.27
2023-02-08T23:56:19.934Z,8.10
2023-02-08T23:58:50.089Z,8.88
